Saint Augustine, FL

7:24 AM EST on December 28, 2014 (GMT -0500)
Saint Augustine | Change Station
CLOSE
Current Station
Airport
Location: St. Augustine,
Elevation: 10 ft
Nearby Weather Stations

Elev 10 ft 29.96 °N, 81.34 °W | Updated 6 minutes ago

Mostly Cloudy
Mostly Cloudy
59 °F
Feels Like 59 °F
N
4
Wind Variable Wind from WSW
Gusts 2 mph

Today
High -- | Low -- °F
--% Chance of Precip.
Yesterday
High -- | Low -- °F
Precip. -- in
7:19 AM 5:34 PM
Waxing Crescent, 47% visible
Pressure 30.16 in
Visibility 0.2 miles
Clouds
Dew Point 57 °F
Humidity 94%
Rainfall 0.00 in
Snow Depth Not available.
UV Not available.
Pollen 2.40 out of 12
Air Quality Not available.
Flu Activity Not available.
SPECI KSGJ 281218Z 24003KT 1/4SM VV001 15/14 A3016 RMK AO2

More Conditions Fewer Conditions

Pressure 30.16 in
Visibility 0.2 miles
Clouds
Dew Point 57 °F
Humidity 94%
Rainfall 0.00 in
Snow Depth Not available.
UV Not available.
Pollen 2.40 out of 12
Air Quality Not available.
Flu Activity Not available.
SPECI KSGJ 281218Z 24003KT 1/4SM VV001 15/14 A3016 RMK AO2

More Conditions Fewer Conditions

10-Day Weather Forecast

Almanac

Astronomy

Dec. 28, 2014 Rise Set
Actual Time
Civil Twilight
Nautical Twilight
Astronomical Twilight
Moon
Length of Visible Light
Length of Day
Tomorrow will be .
, % of the Moon is Illuminated

Today's Extremes

State Highs State Lows

Community

WunderPhotos

Upload Photos

1,781,238 photos uploaded!

WunderBlogs® & News

Nearby

Air Quality

  Air Quality AQ Index Pollutant
Not available.

Snow Depth

Station Depth Elevation

Earthquake Activity

City Distance Mag. Time & Date
Minimum magnitude displayed is 2.5.

Coastal Water Temperatures

Place Temperature

Nearby Weather Stations